Time;durP1;ratioP1;P1;durP2;ratioP2;P2;SDS_P1;SDS_P2;PMS_P1;PMS_P2;Temp;Humidity;BMP_temperature;BMP_pressure;BME280_temperature;BME280_humidity;BME280_pressure;Samples;Min_cycle;Max_cycle;Signal;HPM_P1;HPM_P2
2021/12/04 00:01:50;;;;;;;;;;;4.90;99.90;;;;;;5041145;28;19917;-55
2021/12/04 00:04:21;;;;;;;;;;;4.90;99.90;;;;;;5047367;28;19917;-55
2021/12/04 00:06:48;;;;;;;;;;;4.90;99.90;;;;;;5039098;28;19958;-55
2021/12/04 00:09:15;;;;;;;;;;;4.90;99.90;;;;;;5048392;28;19921;-55
2021/12/04 00:11:50;;;;;;;;;;;4.90;99.90;;;;;;5035981;28;19927;-55
2021/12/04 00:14:16;;;;;;;;;;;5.00;99.90;;;;;;5037280;28;19927;-55
2021/12/04 00:16:41;;;;;;;;;;;4.90;99.90;;;;;;5038761;28;19917;-55
2021/12/04 00:19:07;;;;;;;;;;;4.90;99.90;;;;;;5039689;28;20369;-55
2021/12/04 00:21:32;;;;;;;;;;;4.90;99.90;;;;;;5039020;28;19917;-55
2021/12/04 00:23:58;;;;;;;;;;;4.90;99.90;;;;;;5048016;28;19924;-52
2021/12/04 00:26:23;;;;;;;;;;;4.90;99.90;;;;;;5042860;28;19920;-55
2021/12/04 00:28:48;;;;;;;;;;;4.90;99.90;;;;;;5039769;28;19925;-55
2021/12/04 00:31:14;;;;;;;;;;;4.90;99.90;;;;;;5041994;28;19924;-53
2021/12/04 00:33:43;;;;;;;;;;;4.90;99.90;;;;;;5040104;28;19917;-55
2021/12/04 00:36:14;;;;;;;;;;;4.90;99.90;;;;;;5047044;28;20011;-54
2021/12/04 00:49:35;;;;;;;;;;;5.00;99.90;;;;;;5034815;28;19932;-52
2021/12/04 00:52:01;;;;;;;;;;;4.90;99.90;;;;;;5092973;22;19922;-54
2021/12/04 00:54:27;;;;;;;;;;;4.90;99.90;;;;;;5013563;28;20470;-50
2021/12/04 00:56:53;;;;;;;;;;;4.90;99.90;;;;;;5027788;28;20323;-51
2021/12/04 00:59:19;;;;;;;;;;;4.90;99.90;;;;;;5014531;28;19947;-51
2021/12/04 01:01:45;;;;;;;;;;;4.90;99.90;;;;;;5020888;28;19918;-50
2021/12/04 01:04:11;;;;;;;;;;;4.90;99.90;;;;;;5000647;28;19918;-52
2021/12/04 01:06:37;;;;;;;;;;;5.00;99.90;;;;;;4986230;28;19924;-53
2021/12/04 01:09:05;;;;;;;;;;;5.00;99.90;;;;;;4955749;28;20373;-51
2021/12/04 01:11:30;;;;;;;;;;;5.00;99.90;;;;;;4990608;28;19922;-52
2021/12/04 01:13:56;;;;;;;;;;;5.00;99.90;;;;;;4999921;28;19952;-51
2021/12/04 01:16:22;;;;;;;;;;;5.00;99.90;;;;;;4988237;28;19918;-50
2021/12/04 01:18:47;;;;;;;;;;;5.00;99.90;;;;;;5006027;28;19924;-50
2021/12/04 01:21:13;;;;;;;;;;;5.00;99.90;;;;;;4984069;28;19921;-52
2021/12/04 01:23:38;;;;;;;;;;;5.00;99.90;;;;;;4991107;28;19921;-51
2021/12/04 01:26:04;;;;;;;;;;;5.00;99.90;;;;;;5006601;28;19925;-52
2021/12/04 01:28:29;;;;;;;;;;;5.00;99.90;;;;;;4998666;28;20014;-52
2021/12/04 01:30:55;;;;;;;;;;;5.00;99.90;;;;;;5011588;28;19968;-52
2021/12/04 01:33:20;;;;;;;;;;;5.00;99.90;;;;;;4995051;28;20270;-50
2021/12/04 01:35:46;;;;;;;;;;;5.00;99.90;;;;;;4991019;28;19918;-50
2021/12/04 01:38:12;;;;;;;;;;;5.00;99.90;;;;;;4999352;28;19918;-50
2021/12/04 01:40:37;;;;;;;;;;;5.00;99.90;;;;;;4982200;28;20455;-52
2021/12/04 01:43:03;;;;;;;;;;;5.00;99.90;;;;;;4992939;28;20449;-50
2021/12/04 01:45:29;;;;;;;;;;;5.00;99.90;;;;;;4950886;28;19937;-52
2021/12/04 01:47:58;;;;;;;;;;;5.10;99.90;;;;;;5003925;28;19925;-51
2021/12/04 01:50:25;;;;;;;;;;;5.00;99.90;;;;;;5004284;28;19933;-53
2021/12/04 01:52:55;;;;;;;;;;;5.00;99.90;;;;;;5001746;28;20258;-51
2021/12/04 01:55:23;;;;;;;;;;;5.00;99.90;;;;;;5005615;28;20381;-51
2021/12/04 01:57:49;;;;;;;;;;;5.00;99.90;;;;;;5000279;28;20019;-53
2021/12/04 02:00:14;;;;;;;;;;;5.10;99.90;;;;;;5001967;28;20000;-52
2021/12/04 02:02:40;;;;;;;;;;;5.10;99.90;;;;;;4994433;28;19924;-52
2021/12/04 02:05:06;;;;;;;;;;;5.10;99.90;;;;;;5004129;28;20286;-50
2021/12/04 02:07:31;;;;;;;;;;;5.10;99.90;;;;;;5003396;28;19922;-50
2021/12/04 02:09:57;;;;;;;;;;;5.00;99.90;;;;;;5006289;28;19959;-53
2021/12/04 02:12:22;;;;;;;;;;;5.10;99.90;;;;;;4995816;28;19918;-51
2021/12/04 02:14:49;;;;;;;;;;;5.00;99.90;;;;;;4986058;28;19940;-51
2021/12/04 02:17:14;;;;;;;;;;;5.00;99.90;;;;;;4981900;28;20370;-53
2021/12/04 02:19:40;;;;;;;;;;;5.10;99.90;;;;;;4998830;28;19917;-50
2021/12/04 02:22:06;;;;;;;;;;;5.10;99.90;;;;;;4997399;28;19946;-50
2021/12/04 02:24:32;;;;;;;;;;;5.00;99.90;;;;;;4964178;28;19925;-50
2021/12/04 02:26:58;;;;;;;;;;;5.10;99.90;;;;;;5003611;28;19917;-49
2021/12/04 02:29:24;;;;;;;;;;;5.10;99.90;;;;;;4997660;28;19922;-53
2021/12/04 02:31:51;;;;;;;;;;;5.10;99.90;;;;;;5001222;28;19921;-53
2021/12/04 02:34:21;;;;;;;;;;;5.10;99.90;;;;;;4962045;28;19917;-53
2021/12/04 02:36:47;;;;;;;;;;;5.00;99.90;;;;;;4966528;28;19968;-53
2021/12/04 02:39:22;;;;;;;;;;;5.00;99.90;;;;;;4955110;28;20391;-52
2021/12/04 02:41:47;;;;;;;;;;;5.00;99.90;;;;;;4949485;28;19922;-52
2021/12/04 02:44:13;;;;;;;;;;;5.00;99.90;;;;;;4948391;28;19924;-50
2021/12/04 02:46:39;;;;;;;;;;;5.00;99.90;;;;;;4988506;28;20011;-51
2021/12/04 02:49:06;;;;;;;;;;;5.00;99.90;;;;;;4978524;28;19964;-50
2021/12/04 02:51:32;;;;;;;;;;;5.00;99.90;;;;;;4993597;28;19945;-50
2021/12/04 02:53:58;;;;;;;;;;;5.00;99.90;;;;;;4964485;28;20002;-53
2021/12/04 02:56:25;;;;;;;;;;;5.10;99.90;;;;;;4999138;28;20417;-54
2021/12/04 02:58:54;;;;;;;;;;;5.00;99.90;;;;;;4988326;28;19924;-53
2021/12/04 03:01:20;;;;;;;;;;;5.00;99.90;;;;;;4982415;28;19918;-51
2021/12/04 03:03:47;;;;;;;;;;;5.00;99.90;;;;;;4967265;28;19956;-51
2021/12/04 03:06:12;;;;;;;;;;;5.00;99.90;;;;;;4992442;28;20305;-54
2021/12/04 03:08:38;;;;;;;;;;;5.00;99.90;;;;;;4995986;28;19928;-53
2021/12/04 03:11:04;;;;;;;;;;;5.00;99.90;;;;;;4963793;28;19917;-53
2021/12/04 03:13:29;;;;;;;;;;;5.00;99.90;;;;;;4989801;28;19929;-53
2021/12/04 03:15:59;;;;;;;;;;;5.00;99.90;;;;;;4995997;28;19972;-54
2021/12/04 03:18:25;;;;;;;;;;;5.00;99.90;;;;;;4992830;28;19922;-51
2021/12/04 03:20:52;;;;;;;;;;;5.00;99.90;;;;;;5002345;28;20004;-52
2021/12/04 03:23:28;;;;;;;;;;;5.00;99.90;;;;;;4987389;28;19969;-53
2021/12/04 03:25:55;;;;;;;;;;;4.90;99.90;;;;;;4961765;28;19925;-54
2021/12/04 03:28:21;;;;;;;;;;;5.00;99.90;;;;;;4998418;28;19969;-54
2021/12/04 03:30:56;;;;;;;;;;;5.00;99.90;;;;;;4988139;28;19964;-52
2021/12/04 03:41:19;;;;;;;;;;;4.90;99.90;;;;;;4994040;28;19925;-53
2021/12/04 03:43:44;;;;;;;;;;;5.00;99.90;;;;;;4958773;28;19917;-53
2021/12/04 03:46:13;;;;;;;;;;;5.00;99.90;;;;;;4976109;28;19918;-54
2021/12/04 03:48:50;;;;;;;;;;;5.00;99.90;;;;;;4994724;28;20011;-52
2021/12/04 03:51:16;;;;;;;;;;;5.00;99.90;;;;;;4993705;28;19932;-54
2021/12/04 03:53:42;;;;;;;;;;;4.90;99.90;;;;;;4992250;28;20468;-53
2021/12/04 03:56:09;;;;;;;;;;;4.90;99.90;;;;;;4977319;28;20025;-54
2021/12/04 03:58:35;;;;;;;;;;;4.90;99.90;;;;;;4984620;28;19964;-54
2021/12/04 04:01:00;;;;;;;;;;;5.10;99.90;;;;;;4995385;28;19968;-54
2021/12/04 04:03:27;;;;;;;;;;;4.90;99.90;;;;;;5002062;28;19921;-53
2021/12/04 04:05:53;;;;;;;;;;;4.90;99.90;;;;;;4966926;28;19918;-53
2021/12/04 04:08:19;;;;;;;;;;;4.90;99.90;;;;;;5005850;28;19926;-54
2021/12/04 04:10:46;;;;;;;;;;;4.90;99.90;;;;;;4967635;28;19917;-50
2021/12/04 04:13:12;;;;;;;;;;;4.90;99.90;;;;;;4988089;28;19981;-55
2021/12/04 04:15:38;;;;;;;;;;;4.90;99.90;;;;;;4953112;28;19929;-53
2021/12/04 04:18:05;;;;;;;;;;;4.90;99.90;;;;;;4988385;28;19918;-51
2021/12/04 04:20:31;;;;;;;;;;;4.90;99.90;;;;;;5000236;28;19917;-52
2021/12/04 04:22:57;;;;;;;;;;;5.00;99.90;;;;;;4953149;28;20393;-54
2021/12/04 04:25:22;;;;;;;;;;;5.10;99.90;;;;;;5003842;28;19956;-53
2021/12/04 04:27:48;;;;;;;;;;;5.00;99.90;;;;;;4969837;28;19944;-53
2021/12/04 04:30:15;;;;;;;;;;;5.00;99.90;;;;;;4997499;28;19972;-54
2021/12/04 04:32:41;;;;;;;;;;;5.00;99.90;;;;;;5006312;28;19917;-52
2021/12/04 04:35:26;;;;;;;;;;;5.10;99.90;;;;;;4986243;28;19928;-53
2021/12/04 05:00:15;;;;;;;;;;;5.00;99.90;;;;;;5023793;28;19924;-54
2021/12/04 05:10:51;;;;;;;;;;;5.00;99.90;;;;;;4996983;28;20017;-54
2021/12/04 05:13:19;;;;;;;;;;;5.10;99.90;;;;;;4965819;28;19926;-55
2021/12/04 05:15:57;;;;;;;;;;;5.10;99.90;;;;;;4981905;28;19918;-55
2021/12/04 05:18:43;;;;;;;;;;;5.10;99.90;;;;;;5009692;28;20296;-55
2021/12/04 05:21:11;;;;;;;;;;;5.10;99.90;;;;;;4969248;28;20019;-55
2021/12/04 05:23:37;;;;;;;;;;;5.10;99.90;;;;;;5008644;28;20340;-55
2021/12/04 05:26:03;;;;;;;;;;;5.10;99.90;;;;;;5004961;28;19925;-55
2021/12/04 05:28:29;;;;;;;;;;;5.10;99.90;;;;;;4995914;28;19925;-55
2021/12/04 05:30:55;;;;;;;;;;;5.10;99.90;;;;;;5005060;28;19961;-55
2021/12/04 05:33:21;;;;;;;;;;;5.00;99.90;;;;;;4999899;28;19925;-55
2021/12/04 05:35:48;;;;;;;;;;;5.10;99.90;;;;;;5005632;28;19921;-52
2021/12/04 05:38:15;;;;;;;;;;;5.00;99.90;;;;;;5003139;28;20180;-52
2021/12/04 05:40:41;;;;;;;;;;;4.50;99.90;;;;;;4997877;28;19917;-55
2021/12/04 05:43:07;;;;;;;;;;;5.00;99.90;;;;;;4948573;28;19918;-54
2021/12/04 05:45:38;;;;;;;;;;;5.00;99.90;;;;;;4965750;28;19925;-55
2021/12/04 05:48:12;;;;;;;;;;;5.00;99.90;;;;;;4994139;28;19921;-53
2021/12/04 05:51:02;;;;;;;;;;;5.00;99.90;;;;;;5007258;28;19971;-55
2021/12/04 05:53:28;;;;;;;;;;;5.00;99.90;;;;;;5000582;28;19921;-55
2021/12/04 05:55:56;;;;;;;;;;;5.00;99.90;;;;;;4982332;28;20009;-55
2021/12/04 05:58:28;;;;;;;;;;;5.00;99.90;;;;;;5003362;28;19925;-55
2021/12/04 06:00:55;;;;;;;;;;;5.00;99.90;;;;;;4989828;28;19935;-55
2021/12/04 06:03:21;;;;;;;;;;;5.00;99.90;;;;;;5003038;28;19963;-55
2021/12/04 06:05:46;;;;;;;;;;;5.00;99.90;;;;;;4999193;28;19921;-53
2021/12/04 06:08:12;;;;;;;;;;;5.00;99.90;;;;;;4957996;28;19968;-53
2021/12/04 06:10:38;;;;;;;;;;;5.00;99.90;;;;;;4967926;28;19924;-54
2021/12/04 06:13:04;;;;;;;;;;;5.00;99.90;;;;;;4961941;28;19918;-52
2021/12/04 06:15:30;;;;;;;;;;;5.00;99.90;;;;;;4950661;28;20386;-56
2021/12/04 06:17:56;;;;;;;;;;;5.00;99.90;;;;;;4978195;28;19949;-52
2021/12/04 06:23:06;;;;;;;;;;;5.00;99.90;;;;;;4984304;28;19929;-55
2021/12/04 06:25:32;;;;;;;;;;;5.00;99.90;;;;;;4991174;28;19917;-55
2021/12/04 06:27:58;;;;;;;;;;;5.00;99.90;;;;;;5000493;28;20013;-56
2021/12/04 06:30:24;;;;;;;;;;;5.00;99.90;;;;;;4999839;28;19917;-54
2021/12/04 06:32:51;;;;;;;;;;;5.00;99.90;;;;;;4965176;28;19924;-55
2021/12/04 06:35:18;;;;;;;;;;;5.00;99.90;;;;;;4968577;28;20380;-55
2021/12/04 06:37:43;;;;;;;;;;;5.00;99.90;;;;;;4990442;28;20377;-54
2021/12/04 06:40:11;;;;;;;;;;;5.00;99.90;;;;;;4977797;28;19951;-55
2021/12/04 06:42:37;;;;;;;;;;;5.00;99.90;;;;;;4975483;28;19917;-55
2021/12/04 06:45:04;;;;;;;;;;;5.00;99.90;;;;;;4963679;28;19964;-55
2021/12/04 06:47:32;;;;;;;;;;;5.00;99.90;;;;;;4960774;28;19918;-55
2021/12/04 06:50:03;;;;;;;;;;;5.00;99.90;;;;;;4986453;28;19949;-53
2021/12/04 06:52:29;;;;;;;;;;;4.90;99.90;;;;;;4990527;28;19922;-52
2021/12/04 06:55:00;;;;;;;;;;;4.90;99.90;;;;;;5002550;23;19925;-55
2021/12/04 06:57:28;;;;;;;;;;;4.90;99.90;;;;;;5001970;28;19925;-54
2021/12/04 06:59:55;;;;;;;;;;;5.00;99.90;;;;;;5008916;28;19925;-54
2021/12/04 07:02:21;;;;;;;;;;;5.10;99.90;;;;;;5012171;28;19917;-52
2021/12/04 07:04:46;;;;;;;;;;;4.90;99.90;;;;;;5006430;28;19924;-54
2021/12/04 07:07:12;;;;;;;;;;;5.00;99.90;;;;;;5010691;28;19976;-55
2021/12/04 07:09:39;;;;;;;;;;;4.90;99.90;;;;;;5011459;28;19922;-52
2021/12/04 07:12:04;;;;;;;;;;;4.90;99.90;;;;;;5023411;28;19985;-54
2021/12/04 07:14:30;;;;;;;;;;;4.90;99.90;;;;;;5013759;28;19956;-52
2021/12/04 07:16:57;;;;;;;;;;;4.90;99.90;;;;;;5010675;28;20017;-52
2021/12/04 07:19:22;;;;;;;;;;;4.80;99.90;;;;;;5011375;28;19941;-52
2021/12/04 07:21:48;;;;;;;;;;;4.80;99.90;;;;;;5017749;28;19917;-52
2021/12/04 07:24:14;;;;;;;;;;;4.80;99.90;;;;;;5021670;28;20345;-54
2021/12/04 07:26:40;;;;;;;;;;;4.80;99.90;;;;;;5018748;28;20388;-53
2021/12/04 07:29:06;;;;;;;;;;;4.80;99.90;;;;;;4987780;28;20039;-53
2021/12/04 07:31:32;;;;;;;;;;;4.90;99.90;;;;;;5007777;28;19924;-52
2021/12/04 07:33:57;;;;;;;;;;;4.90;99.90;;;;;;5013677;28;20340;-53
2021/12/04 07:36:23;;;;;;;;;;;4.90;99.90;;;;;;5007205;28;20059;-52
2021/12/04 07:38:48;;;;;;;;;;;4.90;99.90;;;;;;5016389;28;20376;-52
2021/12/04 07:41:14;;;;;;;;;;;4.90;99.90;;;;;;5025077;28;19928;-54
2021/12/04 07:43:40;;;;;;;;;;;4.90;99.90;;;;;;5014019;28;19917;-55
2021/12/04 07:46:05;;;;;;;;;;;4.90;99.90;;;;;;5024756;28;19988;-53
2021/12/04 07:48:31;;;;;;;;;;;4.90;99.90;;;;;;5013516;28;20364;-55
2021/12/04 07:50:57;;;;;;;;;;;4.90;99.90;;;;;;5016792;28;19923;-54
2021/12/04 07:53:22;;;;;;;;;;;4.90;99.90;;;;;;5006780;28;20000;-55
2021/12/04 07:55:48;;;;;;;;;;;4.90;99.90;;;;;;5025759;28;20362;-53
2021/12/04 07:58:16;;;;;;;;;;;4.90;99.90;;;;;;5018355;28;20431;-53
2021/12/04 08:00:42;;;;;;;;;;;4.90;99.90;;;;;;5022736;28;19917;-54
2021/12/04 08:03:07;;;;;;;;;;;4.90;99.90;;;;;;5018931;28;19921;-52
2021/12/04 08:05:33;;;;;;;;;;;4.90;99.90;;;;;;5014889;28;19923;-54
2021/12/04 08:08:00;;;;;;;;;;;4.90;99.90;;;;;;5030473;28;19921;-53
2021/12/04 08:10:26;;;;;;;;;;;4.90;99.90;;;;;;5023306;28;19917;-54
2021/12/04 08:12:51;;;;;;;;;;;4.90;99.90;;;;;;5022967;28;19940;-55
2021/12/04 08:15:17;;;;;;;;;;;4.90;99.90;;;;;;5017423;28;20019;-54
2021/12/04 08:17:43;;;;;;;;;;;4.90;99.90;;;;;;5013068;28;19917;-52
2021/12/04 08:20:10;;;;;;;;;;;5.00;99.90;;;;;;5021525;28;19917;-53
2021/12/04 08:22:36;;;;;;;;;;;4.90;99.90;;;;;;5017223;28;19960;-53
2021/12/04 08:25:02;;;;;;;;;;;4.90;99.90;;;;;;5027078;28;20044;-53
2021/12/04 08:27:27;;;;;;;;;;;4.90;99.90;;;;;;5012880;28;21498;-52
2021/12/04 08:29:53;;;;;;;;;;;4.90;99.90;;;;;;5023499;28;20012;-54
2021/12/04 08:32:22;;;;;;;;;;;4.90;99.90;;;;;;5007451;28;20301;-53
2021/12/04 08:34:48;;;;;;;;;;;4.90;99.90;;;;;;5020232;28;19971;-52
2021/12/04 08:37:14;;;;;;;;;;;4.90;99.90;;;;;;5011419;28;19925;-54
2021/12/04 08:39:40;;;;;;;;;;;4.90;99.90;;;;;;5024901;28;19924;-55
2021/12/04 08:42:05;;;;;;;;;;;5.00;99.90;;;;;;5025251;28;20149;-55
2021/12/04 08:44:32;;;;;;;;;;;5.10;99.90;;;;;;5011196;28;20011;-54
2021/12/04 08:46:58;;;;;;;;;;;5.00;99.90;;;;;;5025842;28;19963;-56
2021/12/04 08:49:23;;;;;;;;;;;5.00;99.90;;;;;;5005457;28;20346;-55
2021/12/04 08:51:49;;;;;;;;;;;5.00;99.90;;;;;;4991077;28;19936;-55
2021/12/04 08:54:15;;;;;;;;;;;4.90;99.90;;;;;;5021774;28;19917;-55
2021/12/04 08:56:41;;;;;;;;;;;4.90;99.90;;;;;;5018897;28;20350;-56
2021/12/04 08:59:07;;;;;;;;;;;4.90;99.90;;;;;;5022508;28;20432;-56
2021/12/04 09:01:35;;;;;;;;;;;5.00;99.90;;;;;;5027972;28;19917;-55
2021/12/04 09:04:04;;;;;;;;;;;5.00;99.90;;;;;;5021473;28;19917;-55
2021/12/04 09:06:30;;;;;;;;;;;5.00;99.90;;;;;;5011379;28;20383;-54
2021/12/04 09:08:55;;;;;;;;;;;5.00;99.90;;;;;;5015819;28;20016;-56
2021/12/04 09:11:23;;;;;;;;;;;5.00;99.90;;;;;;5029156;28;19917;-55
2021/12/04 09:13:50;;;;;;;;;;;5.00;99.90;;;;;;5003052;28;20381;-55
2021/12/04 09:16:16;;;;;;;;;;;5.10;99.90;;;;;;5014347;28;20273;-55
2021/12/04 09:18:42;;;;;;;;;;;5.10;99.90;;;;;;5022049;28;20023;-55
2021/12/04 09:21:10;;;;;;;;;;;5.00;99.90;;;;;;5023002;28;19917;-56
2021/12/04 09:23:38;;;;;;;;;;;5.00;99.90;;;;;;5024428;28;19917;-55
2021/12/04 09:26:05;;;;;;;;;;;5.10;99.90;;;;;;5011933;28;19968;-55
2021/12/04 09:28:44;;;;;;;;;;;5.10;99.90;;;;;;5023466;28;19967;-56
2021/12/04 09:31:23;;;;;;;;;;;5.10;99.90;;;;;;5016304;28;19917;-55
2021/12/04 09:37:03;;;;;;;;;;;5.10;99.90;;;;;;5012694;28;19987;-55
2021/12/04 10:04:17;;;;;;;;;;;5.20;99.90;;;;;;5020438;28;19917;-56
2021/12/04 10:15:28;;;;;;;;;;;5.30;99.90;;;;;;5009005;28;19917;-56
2021/12/04 10:18:08;;;;;;;;;;;5.30;99.90;;;;;;5010698;28;19920;-55
2021/12/04 10:21:00;;;;;;;;;;;5.40;99.90;;;;;;5025179;28;21275;-55
2021/12/04 10:34:27;;;;;;;;;;;5.40;99.90;;;;;;5013310;28;20013;-55
2021/12/04 10:36:53;;;;;;;;;;;5.40;99.90;;;;;;5023605;28;19940;-56
2021/12/04 10:39:19;;;;;;;;;;;5.40;99.90;;;;;;5021650;28;20308;-55
2021/12/04 10:41:45;;;;;;;;;;;5.40;99.90;;;;;;5019284;28;19968;-55
2021/12/04 10:44:25;;;;;;;;;;;5.40;99.90;;;;;;5021011;28;19924;-56
2021/12/04 10:46:52;;;;;;;;;;;5.40;99.90;;;;;;5005770;28;19921;-55
2021/12/04 10:49:27;;;;;;;;;;;5.40;99.90;;;;;;5022156;28;20245;-56
2021/12/04 10:52:02;;;;;;;;;;;5.40;99.90;;;;;;5008024;28;19922;-54
2021/12/04 10:54:31;;;;;;;;;;;5.40;99.90;;;;;;5010651;28;19924;-56
2021/12/04 11:02:40;;;;;;;;;;;5.30;99.90;;;;;;5011450;28;19963;-56
2021/12/04 11:05:36;;;;;;;;;;;5.30;99.90;;;;;;5011638;28;19963;-56
2021/12/04 11:19:35;;;;;;;;;;;5.40;99.90;;;;;;5016289;28;19924;-54
2021/12/04 11:22:29;;;;;;;;;;;5.40;99.90;;;;;;5017296;28;19963;-53
2021/12/04 11:41:15;;;;;;;;;;;5.50;99.90;;;;;;5021669;28;19925;-52
2021/12/04 11:46:39;;;;;;;;;;;5.40;99.90;;;;;;5008527;28;19917;-52
2021/12/04 11:49:11;;;;;;;;;;;5.50;99.90;;;;;;4995236;28;19980;-52
2021/12/04 11:51:44;;;;;;;;;;;5.50;99.90;;;;;;5020527;28;19917;-54
2021/12/04 11:54:10;;;;;;;;;;;5.50;99.90;;;;;;5016162;28;19940;-52
2021/12/04 11:56:36;;;;;;;;;;;5.40;99.90;;;;;;5018682;28;20162;-53
2021/12/04 11:59:02;;;;;;;;;;;5.50;99.90;;;;;;5016331;28;19921;-53
2021/12/04 12:01:32;;;;;;;;;;;5.50;99.90;;;;;;5016463;28;19932;-52
2021/12/04 12:03:59;;;;;;;;;;;5.50;99.90;;;;;;5010192;28;19917;-52
2021/12/04 12:06:39;;;;;;;;;;;5.50;99.90;;;;;;5008423;28;19922;-52
2021/12/04 12:09:28;;;;;;;;;;;5.60;99.90;;;;;;5012063;28;19956;-52
2021/12/04 12:12:00;;;;;;;;;;;5.60;99.90;;;;;;5000869;28;19918;-52
2021/12/04 12:14:38;;;;;;;;;;;5.60;99.90;;;;;;5025243;28;19917;-52
2021/12/04 12:17:03;;;;;;;;;;;5.60;99.90;;;;;;5015333;28;20271;-52
2021/12/04 12:19:39;;;;;;;;;;;5.60;99.90;;;;;;5016897;28;20058;-52
2021/12/04 12:22:20;;;;;;;;;;;5.60;99.90;;;;;;5002597;28;19922;-52
2021/12/04 12:27:33;;;;;;;;;;;5.60;99.90;;;;;;5013514;28;19917;-52
2021/12/04 12:33:03;;;;;;;;;;;5.60;99.90;;;;;;5006088;28;19924;-52
2021/12/04 12:38:29;;;;;;;;;;;5.60;99.90;;;;;;5022230;28;19939;-53
2021/12/04 12:41:05;;;;;;;;;;;5.60;99.90;;;;;;5012768;28;19926;-53
2021/12/04 12:43:37;;;;;;;;;;;5.60;99.90;;;;;;5022332;28;19920;-52
2021/12/04 12:46:02;;;;;;;;;;;5.50;99.90;;;;;;5023604;28;19921;-52
2021/12/04 12:48:28;;;;;;;;;;;5.50;99.90;;;;;;5019454;28;19925;-52
2021/12/04 12:50:54;;;;;;;;;;;5.50;99.90;;;;;;5012196;28;19943;-52
2021/12/04 12:55:47;;;;;;;;;;;6.60;99.90;;;;;;5070636;22;19921;-53
2021/12/04 12:58:22;;;;;;;;;;;5.50;99.90;;;;;;5019871;28;19918;-52
2021/12/04 13:11:56;;;;;;;;;;;5.50;99.90;;;;;;5013694;28;20032;-53
2021/12/04 13:14:53;;;;;;;;;;;5.60;99.90;;;;;;5009511;28;20487;-52
2021/12/04 13:17:23;;;;;;;;;;;5.60;99.90;;;;;;5016325;28;19971;-51
2021/12/04 13:19:50;;;;;;;;;;;5.60;99.90;;;;;;5016419;28;20385;-51
2021/12/04 13:22:19;;;;;;;;;;;5.60;99.90;;;;;;5010485;28;19921;-50
2021/12/04 13:24:46;;;;;;;;;;;5.60;99.90;;;;;;5014198;28;19941;-53
2021/12/04 13:29:52;;;;;;;;;;;5.60;99.90;;;;;;5027520;28;19925;-51
2021/12/04 13:32:25;;;;;;;;;;;5.60;99.90;;;;;;4999695;28;19933;-52
2021/12/04 13:34:51;;;;;;;;;;;5.50;99.90;;;;;;5013480;28;19928;-53
2021/12/04 13:37:24;;;;;;;;;;;5.60;99.90;;;;;;5019574;28;19917;-50
2021/12/04 13:39:54;;;;;;;;;;;5.60;99.90;;;;;;4975158;28;19983;-53
2021/12/04 13:42:19;;;;;;;;;;;5.50;99.90;;;;;;5013870;28;19925;-51
2021/12/04 13:44:45;;;;;;;;;;;5.50;99.90;;;;;;5016730;28;19917;-52
2021/12/04 13:47:11;;;;;;;;;;;5.50;99.90;;;;;;4963302;28;19917;-50
2021/12/04 13:49:39;;;;;;;;;;;5.50;99.90;;;;;;5002929;28;19921;-51
2021/12/04 13:52:06;;;;;;;;;;;5.50;99.90;;;;;;5017228;28;20365;-54
2021/12/04 13:54:33;;;;;;;;;;;5.50;99.90;;;;;;5018596;28;19964;-53
2021/12/04 13:56:58;;;;;;;;;;;5.50;99.90;;;;;;5013087;28;19922;-52
2021/12/04 13:59:25;;;;;;;;;;;5.50;99.90;;;;;;5019621;28;19916;-53
2021/12/04 14:01:50;;;;;;;;;;;5.60;99.90;;;;;;5017694;28;19917;-54
2021/12/04 14:04:16;;;;;;;;;;;5.70;99.90;;;;;;5022589;28;19923;-51
2021/12/04 14:06:55;;;;;;;;;;;5.50;99.90;;;;;;5004716;28;19917;-52
2021/12/04 14:09:22;;;;;;;;;;;5.50;99.90;;;;;;5023018;28;19921;-52
2021/12/04 14:11:48;;;;;;;;;;;5.50;99.90;;;;;;5013044;28;19921;-53
2021/12/04 14:14:16;;;;;;;;;;;5.50;99.90;;;;;;5003628;28;20004;-50
2021/12/04 14:16:42;;;;;;;;;;;5.50;99.90;;;;;;5015150;28;19925;-52
2021/12/04 14:19:26;;;;;;;;;;;5.50;99.90;;;;;;5024132;28;19917;-54
2021/12/04 14:21:52;;;;;;;;;;;5.50;99.90;;;;;;4985947;28;19971;-53
2021/12/04 14:24:35;;;;;;;;;;;5.50;99.90;;;;;;5017847;28;20019;-52
2021/12/04 14:27:02;;;;;;;;;;;5.50;99.90;;;;;;5020230;28;19917;-53
2021/12/04 14:29:32;;;;;;;;;;;5.50;99.90;;;;;;5020692;28;19969;-52
2021/12/04 14:31:57;;;;;;;;;;;5.50;99.90;;;;;;5016972;28;19925;-52
2021/12/04 14:34:24;;;;;;;;;;;5.50;99.90;;;;;;5019543;28;19921;-55
2021/12/04 14:37:01;;;;;;;;;;;5.50;99.90;;;;;;5020601;28;19925;-52
2021/12/04 14:39:27;;;;;;;;;;;5.50;99.90;;;;;;5021619;28;19971;-52
2021/12/04 14:41:52;;;;;;;;;;;5.50;99.90;;;;;;5016733;28;20011;-51
2021/12/04 14:44:17;;;;;;;;;;;5.50;99.90;;;;;;5013603;28;19925;-52
2021/12/04 14:46:43;;;;;;;;;;;5.50;99.90;;;;;;5021603;28;19970;-50
2021/12/04 14:49:11;;;;;;;;;;;5.50;99.90;;;;;;5021948;28;20015;-54
2021/12/04 14:51:37;;;;;;;;;;;5.50;99.90;;;;;;5022777;28;19916;-51
2021/12/04 14:54:02;;;;;;;;;;;5.60;99.90;;;;;;5013485;28;20278;-50
2021/12/04 14:56:29;;;;;;;;;;;5.50;99.90;;;;;;4996338;28;20328;-54
2021/12/04 14:58:56;;;;;;;;;;;5.50;99.90;;;;;;5018940;28;20343;-52
2021/12/04 15:01:23;;;;;;;;;;;5.50;99.90;;;;;;5022615;28;19917;-54
2021/12/04 15:03:51;;;;;;;;;;;5.50;99.90;;;;;;5024871;28;20384;-50
2021/12/04 15:06:18;;;;;;;;;;;5.50;99.90;;;;;;5019884;28;19924;-51
2021/12/04 15:08:46;;;;;;;;;;;5.60;99.90;;;;;;5018928;28;19921;-51
2021/12/04 15:11:14;;;;;;;;;;;5.60;99.90;;;;;;5014240;28;19944;-51
2021/12/04 15:13:42;;;;;;;;;;;5.60;99.90;;;;;;4981682;28;19917;-51
2021/12/04 15:16:10;;;;;;;;;;;5.60;99.90;;;;;;5017557;28;19927;-53
2021/12/04 15:18:38;;;;;;;;;;;5.60;99.90;;;;;;5020508;28;19917;-51
2021/12/04 15:21:10;;;;;;;;;;;5.60;99.90;;;;;;5008548;28;20015;-50
2021/12/04 15:23:37;;;;;;;;;;;5.50;99.90;;;;;;4997806;28;19917;-50
2021/12/04 15:26:08;;;;;;;;;;;5.50;99.90;;;;;;5013492;28;20281;-50
2021/12/04 15:28:34;;;;;;;;;;;5.50;99.90;;;;;;5003257;28;19936;-51
2021/12/04 15:31:01;;;;;;;;;;;5.50;99.90;;;;;;5017239;28;19917;-50
2021/12/04 15:33:29;;;;;;;;;;;5.50;99.90;;;;;;5014191;28;19917;-51
2021/12/04 15:35:55;;;;;;;;;;;5.50;99.90;;;;;;5023475;28;20403;-51
2021/12/04 15:38:38;;;;;;;;;;;5.50;99.90;;;;;;5014581;28;19925;-51
2021/12/04 15:41:13;;;;;;;;;;;5.60;99.90;;;;;;5009443;28;19928;-50
2021/12/04 15:44:05;;;;;;;;;;;5.60;99.90;;;;;;5000114;22;19972;-50
2021/12/04 15:46:41;;;;;;;;;;;5.80;99.90;;;;;;4980668;28;20409;-52
2021/12/04 15:54:55;;;;;;;;;;;5.60;99.90;;;;;;4990894;28;20370;-54
2021/12/04 15:57:21;;;;;;;;;;;5.60;99.90;;;;;;4989432;28;20393;-52
2021/12/04 15:59:49;;;;;;;;;;;5.60;99.90;;;;;;4972181;28;19925;-51
2021/12/04 16:03:04;;;;;;;56.80;28.40;;;5.60;99.90;;;;;;5089017;27;20101;-46
2021/12/04 16:05:34;;;;;;;108.20;79.78;;;5.60;99.90;;;;;;5059589;28;20084;-47
2021/12/04 16:08:14;;;;;;;52.85;27.42;;;5.60;99.90;;;;;;5064751;28;20067;-47
2021/12/04 16:10:46;;;;;;;56.40;26.83;;;5.70;99.90;;;;;;5057859;28;20076;-50
2021/12/04 16:13:17;;;;;;;56.47;26.33;;;5.60;99.90;;;;;;5063807;28;20041;-50
2021/12/04 16:15:43;;;;;;;46.30;24.95;;;5.60;99.90;;;;;;5063789;28;20440;-50
2021/12/04 16:18:09;;;;;;;56.15;26.88;;;5.60;99.90;;;;;;5049238;28;20055;-50
2021/12/04 16:20:36;;;;;;;56.60;33.50;;;5.60;99.90;;;;;;5064184;28;20072;-50
2021/12/04 16:23:04;;;;;;;59.60;38.17;;;5.60;99.90;;;;;;5045469;28;20029;-49
2021/12/04 16:25:37;;;;;;;69.53;43.42;;;5.60;99.90;;;;;;5058869;28;20048;-50
2021/12/04 16:33:47;;;;;;;46.65;24.20;;;5.60;99.90;;;;;;4987188;28;20316;-50
2021/12/04 16:36:22;;;;;;;45.95;24.42;;;5.60;99.90;;;;;;4986791;28;20054;-50
2021/12/04 16:38:49;;;;;;;38.90;22.42;;;5.60;99.90;;;;;;5021290;28;20146;-52
2021/12/04 16:41:15;;;;;;;46.42;22.35;;;5.60;99.90;;;;;;5063672;28;20044;-51
2021/12/04 16:43:45;;;;;;;37.17;21.63;;;5.60;99.90;;;;;;5063822;28;20040;-53
2021/12/04 16:46:15;;;;;;;35.42;19.73;;;5.60;99.90;;;;;;5039400;28;20036;-50
2021/12/04 16:48:54;;;;;;;37.85;20.83;;;5.60;99.90;;;;;;5063366;28;20033;-51
2021/12/04 17:00:18;;;;;;;35.20;19.60;;;5.60;99.90;;;;;;5085762;28;20067;-53
2021/12/04 17:02:48;;;;;;;27.52;16.35;;;5.60;99.90;;;;;;5062703;28;20076;-51
2021/12/04 17:05:14;;;;;;;27.88;17.85;;;5.60;99.90;;;;;;5063794;28;20033;-55
2021/12/04 17:07:40;;;;;;;28.45;17.38;;;5.70;99.90;;;;;;5064353;28;20072;-53
2021/12/04 17:10:08;;;;;;;28.60;16.17;;;5.70;99.90;;;;;;5065510;28;20079;-51
2021/12/04 17:12:36;;;;;;;38.72;22.02;;;5.60;99.90;;;;;;5061624;28;20052;-51
2021/12/04 17:15:07;;;;;;;25.08;16.40;;;5.60;99.90;;;;;;5035346;28;20044;-54
2021/12/04 17:17:36;;;;;;;39.80;30.08;;;5.60;99.90;;;;;;5053525;28;20099;-55
2021/12/04 17:20:04;;;;;;;28.83;18.13;;;5.60;99.90;;;;;;5053184;28;20112;-55
2021/12/04 17:22:30;;;;;;;26.77;17.02;;;5.60;99.90;;;;;;5053245;28;20041;-54
2021/12/04 17:24:56;;;;;;;24.85;15.52;;;5.70;99.90;;;;;;5049742;28;20072;-55
2021/12/04 17:27:22;;;;;;;26.27;16.33;;;5.60;99.90;;;;;;5053123;28;20037;-53